Terminal Aerodrome Forecast
Issued by NWS

Home | Current Version | Previous Version | Text Only | Print | Product List | Glossary On
Versions: 1 2 3 4 5 6 7 8 9 10 11 12 13 14 15 16 17 18 19 20 21 22 23 24 25 26 27
000
FTUS46 KMTR 310152 AAA
TAFSFO
TAF AMD
KSFO 310152Z 3102/0106 28025G34KT P6SM FEW015
     FM310400 28015G20KT P6SM FEW015
     FM310900 26011KT P6SM SCT015
     FM311700 27008KT P6SM FEW015
     FM312100 29015G25KT P6SM SKC
     FM010400 29011KT P6SM FEW012=

USA.gov is the U.S. government's official web portal to all federal, state and local government web resources and services.